Ana Sayfa
METAR-TAF:

METAR-TAF

Havaalanları :

Cocos Adaları, Avustralya

Enlem: 12-11S, Boylam: 096-49E, yükseklik: 3 m

Güncel hava durumu gözlemi

Rapor saat 21:30 UTC de 21 dakika önce yapıldı.
Rüzgar doğu/güneydoğudan 11 kt
Sıcaklık 28°C
Nem 79%
Basınç 1008 hPa
Görüş mesafesi 10 km veya daha fazla
1900 ft yükseklikte parçalı bulutlu
4800 ft yükseklikte parçalı bulutlu
5700 ft yükseklikte parçalı çok bulutlu

METAR: YPCC 242130Z AUTO 12011KT 9999 // SCT019 SCT048 BKN057 28/24 Q1008

Saat: 04:21 (21:51 UTC)

Tahmin

Rapor saat 17:09 UTC de 4 saat ve 42 dakika önce yapıldı.
Ayın 24'si saat 18 UTC'den ayın 25'si saat 18 UTC'ye kadar geçerli Tahmin
Rüzgar doğu/güneydoğudan 12 kt
Görüş mesafesi 10 km veya daha fazla
2000 ft yükseklikte parçalı çok bulutlu
hafif sağanak yağmurlar

TAF: YPCC 241709Z 2418/2518 11012KT 9999 -SHRA BKN020

4.000'den fazla havaalanı için hava durumu gözlemleri ve tahminleri (METAR ve TAF raporları).

Kullanılabilir istasyonlar harita üzerinde sarı ve kırmızı noktalarla gösterilir.

İstasyonun adını görmek için fareyi noktanın üzerinde gezdirin.

Sonrasında hava gözlem ve tahminlerini görmek için tıklayın.

Haritayı değiştirmek için: yaklaştırmak için siyah artı işaretli yeşil düğmeye ve uzaklaştırmak için de eksi işaretli düğmeye hızla tıklayın; bitişik haritalar için yeşil okları kullanın.


METAR-TAF: